sensor_id;sensor_type;location;lat;lon;timestamp;pressure;altitude;pressure_sealevel;temperature;humidity
29383;BME280;16365;51.598;7.668;2022-09-09T00:01:09;100221.97;;;22.70;49.24
29383;BME280;16365;51.598;7.668;2022-09-09T00:03:45;100201.75;;;22.71;49.01
29383;BME280;16365;51.598;7.668;2022-09-09T00:06:32;100203.41;;;22.69;49.10
29383;BME280;16365;51.598;7.668;2022-09-09T00:09:12;100194.53;;;22.67;48.58
29383;BME280;16365;51.598;7.668;2022-09-09T00:11:51;100193.78;;;22.63;48.59
29383;BME280;16365;51.598;7.668;2022-09-09T00:14:45;100199.53;;;22.55;48.97
29383;BME280;16365;51.598;7.668;2022-09-09T00:17:26;100202.41;;;22.52;48.81
29383;BME280;16365;51.598;7.668;2022-09-09T00:20:04;100200.00;;;22.50;48.50
29383;BME280;16365;51.598;7.668;2022-09-09T00:22:38;100210.97;;;22.45;48.94
29383;BME280;16365;51.598;7.668;2022-09-09T00:25:20;100195.72;;;22.39;49.50
29383;BME280;16365;51.598;7.668;2022-09-09T00:27:51;100197.31;;;22.40;49.09
29383;BME280;16365;51.598;7.668;2022-09-09T00:32:54;100189.31;;;22.35;49.33
29383;BME280;16365;51.598;7.668;2022-09-09T00:35:25;100178.41;;;22.33;49.47
29383;BME280;16365;51.598;7.668;2022-09-09T00:37:57;100180.06;;;22.30;50.13
29383;BME280;16365;51.598;7.668;2022-09-09T00:40:35;100177.28;;;22.27;50.18
29383;BME280;16365;51.598;7.668;2022-09-09T00:43:31;100182.13;;;22.26;50.46
29383;BME280;16365;51.598;7.668;2022-09-09T01:00:17;100181.38;;;22.19;50.62
29383;BME280;16365;51.598;7.668;2022-09-09T01:08:05;100163.28;;;22.16;50.19
29383;BME280;16365;51.598;7.668;2022-09-09T01:10:48;100167.34;;;22.15;50.81
29383;BME280;16365;51.598;7.668;2022-09-09T01:13:28;100176.22;;;22.14;51.02
29383;BME280;16365;51.598;7.668;2022-09-09T01:16:01;100178.19;;;22.17;50.85
29383;BME280;16365;51.598;7.668;2022-09-09T01:18:36;100174.16;;;22.18;50.78
29383;BME280;16365;51.598;7.668;2022-09-09T01:26:19;100176.94;;;22.21;50.72
29383;BME280;16365;51.598;7.668;2022-09-09T01:28:49;100164.41;;;22.22;50.77
29383;BME280;16365;51.598;7.668;2022-09-09T01:31:22;100173.69;;;22.23;50.82
29383;BME280;16365;51.598;7.668;2022-09-09T01:33:49;100164.00;;;22.24;50.56
29383;BME280;16365;51.598;7.668;2022-09-09T01:36:24;100168.03;;;22.23;51.14
29383;BME280;16365;51.598;7.668;2022-09-09T01:38:52;100168.44;;;22.25;50.55
29383;BME280;16365;51.598;7.668;2022-09-09T01:41:19;100169.63;;;22.24;50.55
29383;BME280;16365;51.598;7.668;2022-09-09T01:43:46;100171.28;;;22.21;50.56
29383;BME280;16365;51.598;7.668;2022-09-09T01:46:14;100172.53;;;22.20;50.43
29383;BME280;16365;51.598;7.668;2022-09-09T01:48:41;100172.13;;;22.18;50.51
29383;BME280;16365;51.598;7.668;2022-09-09T01:51:09;100168.09;;;22.19;50.38
29383;BME280;16365;51.598;7.668;2022-09-09T01:53:41;100169.31;;;22.18;50.74
29383;BME280;16365;51.598;7.668;2022-09-09T01:59:19;100160.81;;;22.18;50.78
29383;BME280;16365;51.598;7.668;2022-09-09T02:02:17;100168.50;;;22.18;50.65
29383;BME280;16365;51.598;7.668;2022-09-09T02:04:47;100162.44;;;22.19;50.61
29383;BME280;16365;51.598;7.668;2022-09-09T02:07:40;100160.06;;;22.14;50.85
29383;BME280;16365;51.598;7.668;2022-09-09T02:12:47;100168.50;;;22.18;50.44
29383;BME280;16365;51.598;7.668;2022-09-09T02:15:30;100169.34;;;22.15;50.66
29383;BME280;16365;51.598;7.668;2022-09-09T02:18:00;100166.91;;;22.17;50.35
29383;BME280;16365;51.598;7.668;2022-09-09T02:20:31;100156.84;;;22.16;50.46
29383;BME280;16365;51.598;7.668;2022-09-09T02:23:01;100166.09;;;22.16;50.60
29383;BME280;16365;51.598;7.668;2022-09-09T02:25:29;100167.34;;;22.15;50.43
29383;BME280;16365;51.598;7.668;2022-09-09T02:27:56;100168.94;;;22.16;50.71
29383;BME280;16365;51.598;7.668;2022-09-09T02:30:28;100172.56;;;22.17;50.89
29383;BME280;16365;51.598;7.668;2022-09-09T02:32:57;100166.47;;;22.18;50.60
29383;BME280;16365;51.598;7.668;2022-09-09T02:35:25;100171.28;;;22.21;50.56
29383;BME280;16365;51.598;7.668;2022-09-09T02:37:57;100178.53;;;22.22;50.74
29383;BME280;16365;51.598;7.668;2022-09-09T02:40:25;100174.09;;;22.25;50.47
29383;BME280;16365;51.598;7.668;2022-09-09T02:42:54;100168.00;;;22.26;50.82
29383;BME280;16365;51.598;7.668;2022-09-09T02:45:26;100171.63;;;22.27;50.92
29383;BME280;16365;51.598;7.668;2022-09-09T02:51:08;100170.38;;;22.31;50.67
29383;BME280;16365;51.598;7.668;2022-09-09T02:54:43;100169.13;;;22.32;50.58
29383;BME280;16365;51.598;7.668;2022-09-09T02:56:42;100166.72;;;22.35;50.25
29383;BME280;16365;51.598;7.668;2022-09-09T02:59:12;100171.94;;;22.36;50.10
29383;BME280;16365;51.598;7.668;2022-09-09T03:01:39;100175.56;;;22.37;50.26
29383;BME280;16365;51.598;7.668;2022-09-09T03:04:06;100169.91;;;22.37;50.44
29383;BME280;16365;51.598;7.668;2022-09-09T03:06:33;100171.94;;;22.36;50.47
29383;BME280;16365;51.598;7.668;2022-09-09T03:08:59;100177.13;;;22.38;50.37
29383;BME280;16365;51.598;7.668;2022-09-09T03:11:28;100174.31;;;22.38;50.24
29383;BME280;16365;51.598;7.668;2022-09-09T03:13:55;100177.53;;;22.40;50.25
29383;BME280;16365;51.598;7.668;2022-09-09T03:16:23;100166.25;;;22.40;50.55
29383;BME280;16365;51.598;7.668;2022-09-09T03:18:50;100177.47;;;22.43;50.50
29383;BME280;16365;51.598;7.668;2022-09-09T03:21:16;100173.44;;;22.44;50.25
29383;BME280;16365;51.598;7.668;2022-09-09T03:23:43;100165.78;;;22.45;49.97
29383;BME280;16365;51.598;7.668;2022-09-09T03:26:11;100171.41;;;22.45;50.18
29383;BME280;16365;51.598;7.668;2022-09-09T03:28:37;100174.25;;;22.45;49.92
29383;BME280;16365;51.598;7.668;2022-09-09T03:31:05;100177.47;;;22.43;50.22
29383;BME280;16365;51.598;7.668;2022-09-09T03:33:31;100178.69;;;22.42;50.03
29383;BME280;16365;51.598;7.668;2022-09-09T03:35:58;100177.09;;;22.41;49.99
29383;BME280;16365;51.598;7.668;2022-09-09T03:38:25;100167.03;;;22.40;49.91
29383;BME280;16365;51.598;7.668;2022-09-09T03:40:53;100169.88;;;22.40;49.98
29383;BME280;16365;51.598;7.668;2022-09-09T03:43:22;100167.03;;;22.40;50.13
29383;BME280;16365;51.598;7.668;2022-09-09T03:45:49;100165.00;;;22.41;49.99
29383;BME280;16365;51.598;7.668;2022-09-09T03:48:17;100166.59;;;22.42;50.19
29383;BME280;16365;51.598;7.668;2022-09-09T03:50:48;100154.94;;;22.40;50.21
29383;BME280;16365;51.598;7.668;2022-09-09T03:53:16;100159.72;;;22.43;50.22
29383;BME280;16365;51.598;7.668;2022-09-09T03:55:47;100157.69;;;22.43;50.08
29383;BME280;16365;51.598;7.668;2022-09-09T03:58:15;100154.47;;;22.45;50.03
29383;BME280;16365;51.598;7.668;2022-09-09T04:00:42;100150.41;;;22.46;49.96
29383;BME280;16365;51.598;7.668;2022-09-09T04:03:11;100154.44;;;22.48;49.97
29383;BME280;16365;51.598;7.668;2022-09-09T04:05:41;100151.22;;;22.46;50.00
29383;BME280;16365;51.598;7.668;2022-09-09T04:08:08;100158.84;;;22.49;49.99
29383;BME280;16365;51.598;7.668;2022-09-09T04:10:35;100157.63;;;22.50;50.03
29383;BME280;16365;51.598;7.668;2022-09-09T04:13:04;100159.66;;;22.50;49.85
29383;BME280;16365;51.598;7.668;2022-09-09T04:15:31;100162.84;;;22.52;49.95
29383;BME280;16365;51.598;7.668;2022-09-09T04:17:57;100163.63;;;22.52;50.00
29383;BME280;16365;51.598;7.668;2022-09-09T04:20:24;100170.09;;;22.53;50.21
29383;BME280;16365;51.598;7.668;2022-09-09T04:22:50;100163.25;;;22.54;49.97
29383;BME280;16365;51.598;7.668;2022-09-09T04:25:17;100165.63;;;22.55;49.69
29383;BME280;16365;51.598;7.668;2022-09-09T04:27:43;100166.44;;;22.56;49.95
29383;BME280;16365;51.598;7.668;2022-09-09T04:30:10;100172.06;;;22.56;49.95
29383;BME280;16365;51.598;7.668;2022-09-09T04:32:38;100170.06;;;22.56;49.76
29383;BME280;16365;51.598;7.668;2022-09-09T04:35:05;100170.06;;;22.56;49.86
29383;BME280;16365;51.598;7.668;2022-09-09T04:37:31;100176.94;;;22.55;49.50
29383;BME280;16365;51.598;7.668;2022-09-09T04:39:58;100170.47;;;22.55;49.68
29383;BME280;16365;51.598;7.668;2022-09-09T04:42:25;100173.31;;;22.55;49.74
29383;BME280;16365;51.598;7.668;2022-09-09T04:44:52;100175.34;;;22.54;49.49
29383;BME280;16365;51.598;7.668;2022-09-09T04:47:18;100169.28;;;22.52;49.75
29383;BME280;16365;51.598;7.668;2022-09-09T04:49:45;100170.53;;;22.51;49.98
29383;BME280;16365;51.598;7.668;2022-09-09T04:52:11;100164.88;;;22.51;49.90
29383;BME280;16365;51.598;7.668;2022-09-09T04:54:38;100170.53;;;22.51;49.70
29383;BME280;16365;51.598;7.668;2022-09-09T04:57:05;100168.50;;;22.52;49.75
29383;BME280;16365;51.598;7.668;2022-09-09T04:59:31;100170.53;;;22.51;49.95
29383;BME280;16365;51.598;7.668;2022-09-09T05:01:58;100183.41;;;22.52;49.78
29383;BME280;16365;51.598;7.668;2022-09-09T05:04:27;100170.53;;;22.51;49.81
29383;BME280;16365;51.598;7.668;2022-09-09T05:06:55;100174.94;;;22.52;49.92
29383;BME280;16365;51.598;7.668;2022-09-09T05:09:22;100165.25;;;22.53;50.10
29383;BME280;16365;51.598;7.668;2022-09-09T05:11:48;100172.50;;;22.54;49.77
29383;BME280;16365;51.598;7.668;2022-09-09T05:14:15;100168.47;;;22.55;49.65
29383;BME280;16365;51.598;7.668;2022-09-09T05:16:41;100174.09;;;22.55;49.88
29383;BME280;16365;51.598;7.668;2022-09-09T05:19:10;100179.31;;;22.57;49.84
29383;BME280;16365;51.598;7.668;2022-09-09T05:21:37;100166.00;;;22.57;49.68
29383;BME280;16365;51.598;7.668;2022-09-09T05:24:04;100169.22;;;22.60;49.93
29383;BME280;16365;51.598;7.668;2022-09-09T05:26:31;100169.56;;;22.62;50.02
29383;BME280;16365;51.598;7.668;2022-09-09T05:28:58;100162.69;;;22.63;49.86
29383;BME280;16365;51.598;7.668;2022-09-09T05:31:26;100173.59;;;22.64;49.65
29383;BME280;16365;51.598;7.668;2022-09-09T05:33:54;100166.72;;;22.65;49.66
29383;BME280;16365;51.598;7.668;2022-09-09T05:36:22;100166.72;;;22.65;49.55
29383;BME280;16365;51.598;7.668;2022-09-09T05:38:49;100178.81;;;22.66;49.89
29383;BME280;16365;51.598;7.668;2022-09-09T05:41:17;100174.41;;;22.65;49.66
29383;BME280;16365;51.598;7.668;2022-09-09T05:43:44;100176.44;;;22.64;49.65
29383;BME280;16365;51.598;7.668;2022-09-09T05:46:13;100181.63;;;22.66;49.50
29383;BME280;16365;51.598;7.668;2022-09-09T05:48:45;100179.25;;;22.64;49.74
29383;BME280;16365;51.598;7.668;2022-09-09T05:51:20;100175.19;;;22.65;49.54
29383;BME280;16365;51.598;7.668;2022-09-09T05:53:48;100175.56;;;22.67;49.26
29383;BME280;16365;51.598;7.668;2022-09-09T05:56:20;100176.00;;;22.66;49.78
29383;BME280;16365;51.598;7.668;2022-09-09T05:58:52;100173.13;;;22.69;49.41
29383;BME280;16365;51.598;7.668;2022-09-09T06:01:31;100177.59;;;22.67;49.74
29383;BME280;16365;51.598;7.668;2022-09-09T06:03:59;100171.91;;;22.70;49.51
29383;BME280;16365;51.598;7.668;2022-09-09T06:06:27;100178.34;;;22.71;49.36
29383;BME280;16365;51.598;7.668;2022-09-09T06:08:56;100177.13;;;22.72;49.26
29383;BME280;16365;51.598;7.668;2022-09-09T06:11:29;100173.13;;;22.69;49.43
29383;BME280;16365;51.598;7.668;2022-09-09T06:13:59;100180.75;;;22.72;49.31
29383;BME280;16365;51.598;7.668;2022-09-09T06:16:27;100179.94;;;22.72;49.52
29383;BME280;16365;51.598;7.668;2022-09-09T06:18:55;100180.75;;;22.72;49.52
29383;BME280;16365;51.598;7.668;2022-09-09T06:21:25;100187.22;;;22.73;49.48
29383;BME280;16365;51.598;7.668;2022-09-09T06:23:52;100190.84;;;22.73;49.60
29383;BME280;16365;51.598;7.668;2022-09-09T06:26:36;100187.56;;;22.75;49.72
29383;BME280;16365;51.598;7.668;2022-09-09T06:29:04;100185.06;;;22.80;49.54
29383;BME280;16365;51.598;7.668;2022-09-09T06:31:32;100179.81;;;22.82;49.34
29383;BME280;16365;51.598;7.668;2022-09-09T06:34:01;100180.19;;;22.84;49.39
29383;BME280;16365;51.598;7.668;2022-09-09T06:36:30;100188.22;;;22.86;49.42
29383;BME280;16365;51.598;7.668;2022-09-09T06:38:57;100183.78;;;22.89;49.41
29383;BME280;16365;51.598;7.668;2022-09-09T06:41:27;100181.34;;;22.91;49.36
29383;BME280;16365;51.598;7.668;2022-09-09T06:43:54;100184.13;;;22.94;49.24
29383;BME280;16365;51.598;7.668;2022-09-09T06:46:26;100188.50;;;22.99;49.24
29383;BME280;16365;51.598;7.668;2022-09-09T06:48:54;100188.81;;;23.04;49.31
29383;BME280;16365;51.598;7.668;2022-09-09T06:51:23;100192.41;;;23.08;49.36
29383;BME280;16365;51.598;7.668;2022-09-09T06:53:52;100191.13;;;23.13;49.33
29383;BME280;16365;51.598;7.668;2022-09-09T06:56:31;100195.94;;;23.16;49.38
29383;BME280;16365;51.598;7.668;2022-09-09T06:59:01;100192.63;;;23.21;49.12
29383;BME280;16365;51.598;7.668;2022-09-09T07:01:30;100201.81;;;23.25;49.13
29383;BME280;16365;51.598;7.668;2022-09-09T07:03:59;100201.78;;;23.29;48.96
29383;BME280;16365;51.598;7.668;2022-09-09T07:06:28;100202.16;;;23.31;48.94
29383;BME280;16365;51.598;7.668;2022-09-09T07:09:00;100200.94;;;23.32;48.67
29383;BME280;16365;51.598;7.668;2022-09-09T07:11:29;100198.06;;;23.36;48.82
29383;BME280;16365;51.598;7.668;2022-09-09T07:13:57;100202.84;;;23.39;48.84
29383;BME280;16365;51.598;7.668;2022-09-09T07:16:25;100210.03;;;23.43;48.78
29383;BME280;16365;51.598;7.668;2022-09-09T07:18:52;100211.16;;;23.49;48.46
29383;BME280;16365;51.598;7.668;2022-09-09T07:21:19;100203.84;;;23.52;48.82
29383;BME280;16365;51.598;7.668;2022-09-09T07:23:47;100206.63;;;23.55;49.18
29383;BME280;16365;51.598;7.668;2022-09-09T07:26:16;100197.25;;;23.58;48.51
29383;BME280;16365;51.598;7.668;2022-09-09T07:28:43;100205.69;;;23.66;48.73
29383;BME280;16365;51.598;7.668;2022-09-09T07:31:14;100210.03;;;23.70;48.29
29383;BME280;16365;51.598;7.668;2022-09-09T07:33:43;100212.75;;;23.77;48.26
29383;BME280;16365;51.598;7.668;2022-09-09T07:36:20;100209.13;;;23.77;47.77
29383;BME280;16365;51.598;7.668;2022-09-09T07:38:52;100200.56;;;23.80;47.62
29383;BME280;16365;51.598;7.668;2022-09-09T07:41:28;100202.22;;;23.78;47.47
29383;BME280;16365;51.598;7.668;2022-09-09T07:43:54;100215.53;;;23.81;47.56
29383;BME280;16365;51.598;7.668;2022-09-09T07:46:23;100214.34;;;23.78;47.36
29383;BME280;16365;51.598;7.668;2022-09-09T07:48:55;100218.47;;;23.74;47.14
29383;BME280;16365;51.598;7.668;2022-09-09T07:51:27;100218.47;;;23.74;47.29
29383;BME280;16365;51.598;7.668;2022-09-09T07:53:57;100218.47;;;23.74;46.97
29383;BME280;16365;51.598;7.668;2022-09-09T07:56:25;100217.25;;;23.75;47.50
29383;BME280;16365;51.598;7.668;2022-09-09T07:58:54;100224.00;;;23.81;48.87
29383;BME280;16365;51.598;7.668;2022-09-09T08:06:22;100216.09;;;24.39;49.27
29383;BME280;16365;51.598;7.668;2022-09-09T08:08:51;100233.91;;;24.59;48.21
29383;BME280;16365;51.598;7.668;2022-09-09T08:11:18;100231.00;;;24.83;48.18
29383;BME280;16365;51.598;7.668;2022-09-09T08:13:44;100235.38;;;25.04;46.96
29383;BME280;16365;51.598;7.668;2022-09-09T08:16:17;100227.84;;;25.17;46.75
29383;BME280;16365;51.598;7.668;2022-09-09T08:18:44;100223.88;;;25.31;46.86
29383;BME280;16365;51.598;7.668;2022-09-09T08:21:14;100226.81;;;25.44;46.38
29383;BME280;16365;51.598;7.668;2022-09-09T08:23:41;100219.19;;;25.57;46.04
29383;BME280;16365;51.598;7.668;2022-09-09T08:26:14;100221.78;;;25.68;44.64
29383;BME280;16365;51.598;7.668;2022-09-09T08:28:42;100224.38;;;25.78;45.30
29383;BME280;16365;51.598;7.668;2022-09-09T08:31:30;100214.94;;;25.81;44.80
29383;BME280;16365;51.598;7.668;2022-09-09T08:33:58;100226.94;;;25.89;44.30
29383;BME280;16365;51.598;7.668;2022-09-09T08:36:32;100230.13;;;25.91;44.32
29383;BME280;16365;51.598;7.668;2022-09-09T08:39:04;100229.16;;;25.98;44.65
29383;BME280;16365;51.598;7.668;2022-09-09T08:55:42;100226.66;;;26.00;42.67
29383;BME280;16365;51.598;7.668;2022-09-09T08:58:22;100228.06;;;25.92;42.52
29383;BME280;16365;51.598;7.668;2022-09-09T09:06:22;100233.69;;;25.79;43.54
29383;BME280;16365;51.598;7.668;2022-09-09T09:14:22;100240.50;;;25.81;42.85
29383;BME280;16365;51.598;7.668;2022-09-09T09:19:27;100231.44;;;25.86;43.26
29383;BME280;16365;51.598;7.668;2022-09-09T09:22:17;100235.44;;;25.89;43.21
29383;BME280;16365;51.598;7.668;2022-09-09T09:25:00;100239.72;;;25.97;42.75
29383;BME280;16365;51.598;7.668;2022-09-09T09:30:21;100229.91;;;26.14;41.95
29383;BME280;16365;51.598;7.668;2022-09-09T09:33:04;100236.53;;;26.24;42.38
29383;BME280;16365;51.598;7.668;2022-09-09T09:35:32;100233.88;;;26.33;42.45
29383;BME280;16365;51.598;7.668;2022-09-09T09:38:18;100236.94;;;26.39;41.37
29383;BME280;16365;51.598;7.668;2022-09-09T09:41:06;100228.50;;;26.52;41.41
29383;BME280;16365;51.598;7.668;2022-09-09T09:43:34;100231.13;;;26.59;41.15
29383;BME280;16365;51.598;7.668;2022-09-09T09:46:16;100220.03;;;26.64;40.17
29383;BME280;16365;51.598;7.668;2022-09-09T09:48:56;100223.81;;;26.74;41.21
29383;BME280;16365;51.598;7.668;2022-09-09T09:51:24;100219.72;;;26.88;40.89
29383;BME280;16365;51.598;7.668;2022-09-09T09:53:51;100211.53;;;27.03;40.39
29383;BME280;16365;51.598;7.668;2022-09-09T09:56:27;100214.13;;;27.13;39.97
29383;BME280;16365;51.598;7.668;2022-09-09T09:58:58;100223.44;;;27.27;39.62
29383;BME280;16365;51.598;7.668;2022-09-09T10:01:27;100219.13;;;27.35;39.29
29383;BME280;16365;51.598;7.668;2022-09-09T10:06:42;100223.22;;;27.47;39.04
29383;BME280;16365;51.598;7.668;2022-09-09T10:09:26;100223.66;;;27.45;38.37
29383;BME280;16365;51.598;7.668;2022-09-09T10:12:04;100217.88;;;27.49;37.46
29383;BME280;16365;51.598;7.668;2022-09-09T10:14:55;100211.84;;;27.47;38.62
29383;BME280;16365;51.598;7.668;2022-09-09T10:23:29;100202.03;;;27.48;37.34
29383;BME280;16365;51.598;7.668;2022-09-09T10:29:05;100214.34;;;27.45;36.71
29383;BME280;16365;51.598;7.668;2022-09-09T10:31:38;100217.97;;;27.45;36.93
29383;BME280;16365;51.598;7.668;2022-09-09T10:36:57;100208.16;;;27.46;37.62
29383;BME280;16365;51.598;7.668;2022-09-09T10:42:09;100206.00;;;27.50;36.74
29383;BME280;16365;51.598;7.668;2022-09-09T10:50:05;100199.09;;;27.51;35.58
29383;BME280;16365;51.598;7.668;2022-09-09T10:55:18;100192.91;;;27.53;35.81
29383;BME280;16365;51.598;7.668;2022-09-09T10:57:50;100193.13;;;27.58;35.56
29383;BME280;16365;51.598;7.668;2022-09-09T11:00:26;100194.28;;;27.61;35.35
29383;BME280;16365;51.598;7.668;2022-09-09T11:03:00;100192.44;;;27.67;35.50
29383;BME280;16365;51.598;7.668;2022-09-09T11:05:38;100192.78;;;27.69;34.94
29383;BME280;16365;51.598;7.668;2022-09-09T11:08:14;100189.03;;;27.72;34.86
29383;BME280;16365;51.598;7.668;2022-09-09T11:10:52;100191.78;;;27.76;35.33
29383;BME280;16365;51.598;7.668;2022-09-09T11:13:34;100184.34;;;27.78;35.13
29383;BME280;16365;51.598;7.668;2022-09-09T11:17:03;100194.03;;;27.81;34.85
29383;BME280;16365;51.598;7.668;2022-09-09T11:19:15;100191.06;;;27.84;34.69
29383;BME280;16365;51.598;7.668;2022-09-09T11:21:46;100186.50;;;27.87;35.02
29383;BME280;16365;51.598;7.668;2022-09-09T11:24:27;100184.13;;;27.85;34.57
29383;BME280;16365;51.598;7.668;2022-09-09T11:27:00;100186.72;;;27.92;35.02
29383;BME280;16365;51.598;7.668;2022-09-09T11:38:44;100197.72;;;28.03;33.86
29383;BME280;16365;51.598;7.668;2022-09-09T11:41:13;100194.09;;;28.03;34.17
29383;BME280;16365;51.598;7.668;2022-09-09T11:43:49;100203.56;;;28.00;34.14
29383;BME280;16365;51.598;7.668;2022-09-09T11:46:22;100192.16;;;28.00;34.47
29383;BME280;16365;51.598;7.668;2022-09-09T11:49:02;100200.72;;;28.00;34.71
29383;BME280;16365;51.598;7.668;2022-09-09T11:51:31;100189.66;;;28.02;34.57
29383;BME280;16365;51.598;7.668;2022-09-09T11:54:00;100187.13;;;28.04;34.42
29383;BME280;16365;51.598;7.668;2022-09-09T11:56:43;100183.47;;;28.03;34.59
29383;BME280;16365;51.598;7.668;2022-09-09T11:59:22;100187.00;;;28.07;35.01
29383;BME280;16365;51.598;7.668;2022-09-09T12:02:00;100186.41;;;28.12;34.49
29383;BME280;16365;51.598;7.668;2022-09-09T12:04:32;100181.84;;;28.15;34.33
29383;BME280;16365;51.598;7.668;2022-09-09T12:09:51;100171.25;;;28.15;34.53
29383;BME280;16365;51.598;7.668;2022-09-09T12:17:25;100176.16;;;28.15;35.09
29383;BME280;16365;51.598;7.668;2022-09-09T12:22:41;100177.72;;;28.16;34.34
29383;BME280;16365;51.598;7.668;2022-09-09T12:28:22;100186.09;;;28.10;34.56
29383;BME280;16365;51.598;7.668;2022-09-09T12:33:54;100180.47;;;28.20;34.65
29383;BME280;16365;51.598;7.668;2022-09-09T12:36:29;100180.31;;;28.23;33.94
29383;BME280;16365;51.598;7.668;2022-09-09T12:38:59;100191.59;;;28.27;33.77
29383;BME280;16365;51.598;7.668;2022-09-09T12:41:37;100187.81;;;28.30;33.73
29383;BME280;16365;51.598;7.668;2022-09-09T12:44:05;100182.25;;;28.26;33.80
29383;BME280;16365;51.598;7.668;2022-09-09T12:46:41;100182.84;;;28.21;33.29
29383;BME280;16365;51.598;7.668;2022-09-09T12:52:06;100182.66;;;28.15;33.45
29383;BME280;16365;51.598;7.668;2022-09-09T12:54:35;100190.84;;;28.13;34.08
29383;BME280;16365;51.598;7.668;2022-09-09T12:57:03;100190.19;;;28.09;33.81
29383;BME280;16365;51.598;7.668;2022-09-09T12:59:38;100188.84;;;28.01;34.82
29383;BME280;16365;51.598;7.668;2022-09-09T13:04:46;100205.28;;;27.84;35.27
29383;BME280;16365;51.598;7.668;2022-09-09T13:07:13;100227.34;;;27.71;35.38
29383;BME280;16365;51.598;7.668;2022-09-09T13:09:43;100238.47;;;27.53;36.64
29383;BME280;16365;51.598;7.668;2022-09-09T13:12:19;100234.81;;;27.27;38.30
29383;BME280;16365;51.598;7.668;2022-09-09T13:14:50;100225.44;;;27.01;38.21
29383;BME280;16365;51.598;7.668;2022-09-09T13:17:25;100209.31;;;26.69;39.73
29383;BME280;16365;51.598;7.668;2022-09-09T13:19:55;100208.78;;;26.45;39.39
29383;BME280;16365;51.598;7.668;2022-09-09T13:22:36;100198.22;;;26.16;40.99
29383;BME280;16365;51.598;7.668;2022-09-09T13:25:20;100190.97;;;25.99;41.93
29383;BME280;16365;51.598;7.668;2022-09-09T13:28:02;100188.84;;;25.86;42.06
29383;BME280;16365;51.598;7.668;2022-09-09T13:30:34;100188.25;;;25.79;42.67
29383;BME280;16365;51.598;7.668;2022-09-09T13:38:16;100174.63;;;25.70;42.69
29383;BME280;16365;51.598;7.668;2022-09-09T13:43:25;100176.34;;;25.68;42.08
29383;BME280;16365;51.598;7.668;2022-09-09T13:45:54;100179.28;;;25.64;42.48
29383;BME280;16365;51.598;7.668;2022-09-09T13:48:23;100180.53;;;25.63;42.33
29383;BME280;16365;51.598;7.668;2022-09-09T13:51:01;100183.06;;;25.57;42.94
29383;BME280;16365;51.598;7.668;2022-09-09T13:53:29;100184.25;;;25.60;42.78
29383;BME280;16365;51.598;7.668;2022-09-09T13:55:57;100188.31;;;25.59;42.75
29383;BME280;16365;51.598;7.668;2022-09-09T13:58:25;100175.72;;;25.60;42.44
29383;BME280;16365;51.598;7.668;2022-09-09T14:00:53;100172.78;;;25.63;43.42
29383;BME280;16365;51.598;7.668;2022-09-09T14:03:20;100171.47;;;25.68;43.32
29383;BME280;16365;51.598;7.668;2022-09-09T14:05:47;100172.09;;;25.76;43.75
29383;BME280;16365;51.598;7.668;2022-09-09T14:08:23;100178.38;;;25.83;43.78
29383;BME280;16365;51.598;7.668;2022-09-09T14:10:50;100171.53;;;25.97;43.07
29383;BME280;16365;51.598;7.668;2022-09-09T14:13:17;100166.34;;;26.08;43.15
29383;BME280;16365;51.598;7.668;2022-09-09T14:15:44;100175.81;;;26.18;42.76
29383;BME280;16365;51.598;7.668;2022-09-09T14:18:12;100179.28;;;26.26;42.88
29383;BME280;16365;51.598;7.668;2022-09-09T14:20:39;100169.75;;;26.32;42.29
29383;BME280;16365;51.598;7.668;2022-09-09T14:23:10;100177.38;;;26.35;42.79
29383;BME280;16365;51.598;7.668;2022-09-09T14:25:40;100173.97;;;26.40;42.41
29383;BME280;16365;51.598;7.668;2022-09-09T14:28:09;100164.13;;;26.45;42.27
29383;BME280;16365;51.598;7.668;2022-09-09T14:30:38;100164.00;;;26.49;41.60
29383;BME280;16365;51.598;7.668;2022-09-09T14:33:07;100177.00;;;26.50;41.64
29383;BME280;16365;51.598;7.668;2022-09-09T14:35:34;100189.97;;;26.51;41.91
29383;BME280;16365;51.598;7.668;2022-09-09T14:38:02;100187.56;;;26.49;41.10
29383;BME280;16365;51.598;7.668;2022-09-09T14:40:28;100172.66;;;26.45;41.14
29383;BME280;16365;51.598;7.668;2022-09-09T14:42:55;100182.50;;;26.40;40.69
29383;BME280;16365;51.598;7.668;2022-09-09T14:45:23;100179.41;;;26.35;40.84
29383;BME280;16365;51.598;7.668;2022-09-09T14:47:51;100183.63;;;26.30;41.01
29383;BME280;16365;51.598;7.668;2022-09-09T14:50:19;100182.53;;;26.24;40.61
29383;BME280;16365;51.598;7.668;2022-09-09T14:52:45;100183.91;;;26.20;40.43
29383;BME280;16365;51.598;7.668;2022-09-09T14:55:13;100177.97;;;26.14;41.11
29383;BME280;16365;51.598;7.668;2022-09-09T14:57:39;100178.41;;;26.12;41.00
29383;BME280;16365;51.598;7.668;2022-09-09T15:00:08;100171.94;;;26.12;41.41
29383;BME280;16365;51.598;7.668;2022-09-09T15:02:34;100177.97;;;26.14;41.40
29383;BME280;16365;51.598;7.668;2022-09-09T15:05:01;100176.28;;;26.17;41.24
29383;BME280;16365;51.598;7.668;2022-09-09T15:07:28;100174.94;;;26.21;40.63
29383;BME280;16365;51.598;7.668;2022-09-09T15:09:54;100180.50;;;26.25;41.14
29383;BME280;16365;51.598;7.668;2022-09-09T15:12:21;100177.09;;;26.30;41.48
29383;BME280;16365;51.598;7.668;2022-09-09T15:14:48;100169.66;;;26.36;41.06
29383;BME280;16365;51.598;7.668;2022-09-09T15:17:14;100171.16;;;26.40;40.55
29383;BME280;16365;51.598;7.668;2022-09-09T15:19:41;100177.53;;;26.45;40.53
29383;BME280;16365;51.598;7.668;2022-09-09T15:22:08;100173.78;;;26.48;40.31
29383;BME280;16365;51.598;7.668;2022-09-09T15:24:35;100185.16;;;26.48;39.94
29383;BME280;16365;51.598;7.668;2022-09-09T15:27:01;100173.00;;;26.47;39.73